Time;durP1;ratioP1;P1;durP2;ratioP2;P2;SDS_P1;SDS_P2;PMS_P1;PMS_P2;Temp;Humidity;BMP_temperature;BMP_pressure;BME280_temperature;BME280_humidity;BME280_pressure;Samples;Min_cycle;Max_cycle;Signal;HPM_P1;HPM_P2
2022/05/24 00:01:33;;;;;;;6.27;4.17;;;;;;;12.66;77.66;99868.69;709208;1180;114493;-77
2022/05/24 00:16:35;;;;;;;11.18;6.60;;;;;;;12.60;78.30;99866.68;711320;1180;115005;-77
2022/05/24 00:31:38;;;;;;;8.03;5.13;;;;;;;12.56;78.96;99858.27;711261;1180;114505;-77
2022/05/24 00:46:49;;;;;;;9.30;5.48;;;;;;;12.63;79.26;99851.41;711404;1180;114963;-77
2022/05/24 01:01:51;;;;;;;11.10;7.00;;;;;;;12.39;80.60;99843.41;711986;1179;114227;-75
2022/05/24 01:16:56;;;;;;;12.65;5.90;;;;;;;12.28;81.00;99837.44;711770;1178;114801;-77
2022/05/24 01:47:22;;;;;;;8.85;5.78;;;;;;;12.24;81.54;99816.89;711188;1178;115467;-77
2022/05/24 02:02:27;;;;;;;8.80;5.70;;;;;;;12.12;81.88;99801.38;711494;1180;114053;-77
2022/05/24 02:17:39;;;;;;;10.77;6.50;;;;;;;12.10;83.47;99787.58;711230;1180;115166;-77
2022/05/24 02:32:41;;;;;;;11.47;7.07;;;;;;;12.05;84.95;99787.22;711410;1178;114194;-77
2022/05/24 02:47:43;;;;;;;8.58;5.80;;;;;;;11.99;85.27;99783.39;710490;1180;114507;-76
2022/05/24 03:02:46;;;;;;;7.55;5.48;;;;;;;12.01;86.61;99780.63;711111;1180;114347;-77
2022/05/24 03:17:48;;;;;;;18.33;9.83;;;;;;;12.01;87.17;99756.13;711303;1179;115251;-77
2022/05/24 03:32:51;;;;;;;13.00;8.20;;;;;;;12.17;87.23;99768.52;711321;1180;114212;-77
2022/05/24 03:47:53;;;;;;;11.85;7.50;;;;;;;12.47;88.21;99757.47;711250;1180;115581;-76
2022/05/24 04:02:56;;;;;;;10.60;7.05;;;;;;;12.89;87.51;99765.43;711390;1180;115243;-77
2022/05/24 04:17:58;;;;;;;9.33;6.33;;;;;;;13.33;87.00;99759.86;709622;1180;114506;-78
2022/05/24 04:33:01;;;;;;;12.70;6.45;;;;;;;13.87;86.41;99759.29;711343;1180;114831;-77
2022/05/24 04:48:06;;;;;;;11.18;6.58;;;;;;;14.41;85.01;99763.85;711231;1179;115650;-74
2022/05/24 05:03:14;;;;;;;12.05;6.65;;;;;;;14.77;84.38;99747.48;711631;1180;114989;-74
2022/05/24 05:18:18;;;;;;;10.23;6.20;;;;;;;15.40;82.80;99743.84;711064;1180;115330;-73
2022/05/24 05:33:20;;;;;;;8.63;5.63;;;;;;;16.12;80.39;99737.14;710719;1180;115470;-74
2022/05/24 05:48:23;;;;;;;7.90;5.75;;;;;;;17.03;76.33;99741.17;711435;1180;114752;-77
2022/05/24 06:03:26;;;;;;;9.67;5.27;;;;;;;17.29;72.80;99740.57;711719;1180;114842;-74
2022/05/24 06:18:28;;;;;;;5.40;4.00;;;;;;;17.74;71.79;99729.64;711397;1179;114010;-78
2022/05/24 06:33:31;;;;;;;8.30;4.10;;;;;;;18.62;69.94;99734.27;711867;1180;115340;-76
2022/05/24 06:48:36;;;;;;;5.83;4.10;;;;;;;18.89;66.89;99734.36;718937;1180;115291;-78
2022/05/24 07:03:38;;;;;;;6.18;3.30;;;;;;;19.26;66.13;99726.79;710888;1180;114036;-75
2022/05/24 07:18:47;;;;;;;6.17;2.93;;;;;;;19.88;62.86;99732.63;711390;1178;114767;-76
2022/05/24 07:33:50;;;;;;;4.25;3.00;;;;;;;20.45;60.85;99716.81;712112;1179;114805;-85
2022/05/24 07:48:53;;;;;;;5.37;2.70;;;;;;;21.60;59.43;99696.23;711855;1178;115201;-83
2022/05/24 08:03:56;;;;;;;3.20;2.53;;;;;;;21.74;55.26;99722.77;712406;1179;115714;-84
2022/05/24 08:19:01;;;;;;;3.00;2.40;;;;;;;22.19;56.43;99697.57;711736;1180;115121;-75
2022/05/24 08:34:04;;;;;;;4.00;2.33;;;;;;;22.04;54.63;99709.47;712155;1180;113937;-75
2022/05/24 08:49:13;;;;;;;2.85;2.23;;;;;;;22.39;54.83;99692.78;712022;1179;115093;-74
2022/05/24 09:04:17;;;;;;;3.07;2.37;;;;;;;23.08;54.00;99681.64;711954;1179;114065;-75
2022/05/24 09:19:27;;;;;;;3.77;2.47;;;;;;;23.33;53.49;99671.77;710938;1179;114898;-74
2022/05/24 09:34:33;;;;;;;5.95;2.40;;;;;;;23.04;51.67;99677.80;711431;1178;115420;-74
2022/05/24 09:49:36;;;;;;;5.95;2.50;;;;;;;23.32;51.01;99667.45;711592;1178;114769;-73
2022/05/24 10:04:40;;;;;;;8.20;2.37;;;;;;;23.51;50.60;99662.78;711532;1179;114682;-73
2022/05/24 10:20:07;;;;;;;2.37;2.10;;;;;;;23.15;51.05;99672.69;711565;1178;115555;-74
2022/05/24 10:51:24;;;;;;;3.60;2.30;;;;;;;22.67;50.20;99672.63;716267;1168;115179;-76
2022/05/24 11:06:35;;;;;;;1.77;1.67;;;;;;;22.82;51.02;99674.88;712496;1180;114548;-78
2022/05/24 11:21:44;;;;;;;3.38;1.83;;;;;;;22.75;50.22;99677.66;712944;1180;114646;-74
2022/05/24 11:37:26;;;;;;;2.87;1.80;;;;;;;22.54;50.12;99689.70;712561;1177;114975;-75
2022/05/24 11:52:41;;;;;;;3.67;1.97;;;;;;;22.46;51.73;99686.53;712498;1178;114625;-75
2022/05/24 12:07:54;;;;;;;4.70;2.00;;;;;;;22.34;52.31;99689.14;711998;1180;114153;-74
2022/05/24 12:23:28;;;;;;;8.23;2.65;;;;;;;22.37;53.02;99700.22;712065;1179;115542;-76
2022/05/24 12:38:32;;;;;;;7.05;2.70;;;;;;;21.64;55.03;99698.44;712928;1180;114457;-76
2022/05/24 12:53:37;;;;;;;5.40;2.60;;;;;;;21.67;55.54;99696.15;712515;1178;115452;-74
2022/05/24 13:08:40;;;;;;;8.93;3.05;;;;;;;21.00;59.32;99707.43;712846;1178;115631;-76
2022/05/24 13:23:43;;;;;;;3.68;2.68;;;;;;;19.75;63.68;99698.84;712597;1178;114213;-78
2022/05/24 13:38:50;;;;;;;5.43;2.70;;;;;;;19.54;65.10;99689.29;712381;1180;114108;-76
2022/05/24 13:53:55;;;;;;;4.63;2.45;;;;;;;19.73;65.68;99686.78;712670;1177;114038;-74
2022/05/24 14:09:00;;;;;;;4.90;4.40;;;;;;;19.61;66.53;99716.71;712575;1179;113995;-75
2022/05/24 14:24:06;;;;;;;60.03;38.85;;;;;;;19.52;68.38;99731.26;713709;1180;113924;-73
2022/05/24 14:39:09;;;;;;;13.57;10.17;;;;;;;19.40;69.69;99740.88;712653;1178;115191;-74
2022/05/24 14:54:12;;;;;;;20.57;12.80;;;;;;;19.49;70.70;99750.27;712419;1179;115108;-75
2022/05/24 15:24:42;;;;;;;7.23;4.80;;;;;;;18.94;75.24;99795.69;712127;1179;115281;-76
2022/05/24 15:39:47;;;;;;;4.17;3.63;;;;;;;18.43;77.00;99763.23;712487;1179;114558;-76
2022/05/24 15:54:50;;;;;;;12.85;6.70;;;;;;;18.36;78.47;99743.81;712517;1178;114821;-76
2022/05/24 16:10:06;;;;;;;9.37;6.80;;;;;;;18.35;79.21;99762.61;712941;1177;114120;-75
2022/05/24 16:25:11;;;;;;;11.63;5.43;;;;;;;17.95;82.39;99765.91;712379;1178;115662;-75
2022/05/24 16:40:15;;;;;;;47.03;19.00;;;;;;;17.58;85.90;99762.59;712861;1177;115459;-75
2022/05/24 17:10:39;;;;;;;15.37;9.33;;;;;;;17.60;87.10;99774.63;712716;1180;116001;-77
2022/05/24 17:25:43;;;;;;;10.40;5.65;;;;;;;17.60;88.89;99773.81;711935;1180;114826;-75
2022/05/24 17:40:50;;;;;;;21.90;11.67;;;;;;;17.49;89.83;99767.22;712550;1180;115903;-75
2022/05/24 17:55:53;;;;;;;7.25;5.20;;;;;;;17.41;91.30;99780.63;712830;1180;115631;-75
2022/05/24 18:10:56;;;;;;;7.83;5.50;;;;;;;17.29;92.98;99785.63;712361;1178;115277;-75
2022/05/24 18:41:41;;;;;;;8.50;5.25;;;;;;;17.13;95.94;99794.67;711890;1179;114873;-75
2022/05/24 18:56:43;;;;;;;9.03;5.40;;;;;;;17.09;96.56;99807.47;711993;1180;114879;-74
2022/05/24 19:11:46;;;;;;;12.53;8.07;;;;;;;17.06;96.45;99788.47;712321;1178;115292;-75
2022/05/24 19:26:49;;;;;;;33.98;12.73;;;;;;;16.94;96.98;99807.51;712421;1180;114144;-78
2022/05/24 19:41:52;;;;;;;13.50;7.47;;;;;;;16.94;97.97;99809.35;712434;1179;115945;-76
2022/05/24 19:56:55;;;;;;;8.35;5.88;;;;;;;16.89;98.54;99817.84;712558;1178;115146;-77
2022/05/24 20:11:58;;;;;;;9.43;6.33;;;;;;;16.99;97.69;99838.75;713019;1178;115582;-76
2022/05/24 20:27:04;;;;;;;12.10;6.40;;;;;;;16.88;97.85;99834.74;713157;1179;114689;-76
2022/05/24 20:42:12;;;;;;;16.90;7.00;;;;;;;16.75;98.44;99842.55;712450;1178;115434;-76
2022/05/24 20:57:14;;;;;;;8.40;6.07;;;;;;;16.67;99.30;99848.77;712564;1180;115439;-76
2022/05/24 21:12:20;;;;;;;7.37;5.77;;;;;;;16.61;100.00;99849.50;712525;1180;114736;-76
2022/05/24 21:42:44;;;;;;;8.30;6.17;;;;;;;16.53;100.00;99846.97;712400;1178;114620;-75
2022/05/24 21:57:46;;;;;;;10.80;6.43;;;;;;;16.46;100.00;99845.05;712829;1179;115332;-75
2022/05/24 22:12:48;;;;;;;8.63;5.63;;;;;;;16.44;100.00;99865.60;712247;1178;116040;-76
2022/05/24 22:27:51;;;;;;;13.07;6.67;;;;;;;16.38;100.00;99866.33;712178;1180;114794;-75
2022/05/24 22:42:56;;;;;;;10.30;6.65;;;;;;;16.38;100.00;99858.39;712285;1178;115149;-74
2022/05/24 22:57:58;;;;;;;11.33;7.27;;;;;;;16.29;100.00;99855.00;712239;1178;115321;-75
2022/05/24 23:13:02;;;;;;;10.47;7.53;;;;;;;16.41;97.58;99868.59;712015;1180;115970;-75
2022/05/24 23:28:04;;;;;;;10.50;6.90;;;;;;;16.09;98.63;99857.38;712461;1180;114531;-76
2022/05/24 23:43:06;;;;;;;10.40;6.70;;;;;;;16.26;99.42;99849.28;712165;1179;115316;-75
2022/05/24 23:58:09;;;;;;;14.05;6.88;;;;;;;16.37;99.18;99867.33;712347;1177;115365;-75
